Rankin Inlet Airport Rankin Inlet CA
ICAO: CYRT
IATA: YRT
Category: Medium
Scheduled Services: Yes

Elevation: 94 ft
TransAlt. 18000 ft.

Airport Communications:
MF RDO:122.2
VDF:122.2
ARCTIC RDO:126.7
RDO:122.2

CYRT Zoom In..

If you have problems with the map follow the link
https://www.worldairports.se/pages/airport.php?
ICAO=CYRT

Runways:

(A) RW 13 length 6000 ft width 150 ft
---- / hdg 129

(B) RW 31 length 6000 ft width 150 ft
---- / hdg 309

Location; CYRT
Day. 18 / Time. 21.00 Zulu
* Altimeter: 30.25
* Temperature: -41° c. 41.8°f.
* Wind from: 340° Speed 14 kn.
Dewpoint: -45° c.
Visibility: 3 Statute Miles.
Clouds: Few 27000 ft.
Conditions: Ice Crystals.Conditions: Mist.

CYRT 182100Z 34014KT 3SM IC BR DRSN FEW270 M41/M45 A3025 RMK CI1 SLP253


Wind From 340°
Speed 14 kn.

 
 
jpsmedia.com for Web Design worldairports.se 2019   terms of use